sensor_id;sensor_type;location;lat;lon;timestamp;P1;durP1;ratioP1;P2;durP2;ratioP2
60492;SDS011;46341;51.290;-2.474;2023-02-01T00:01:41;22.13;;;4.70;;
60492;SDS011;46341;51.290;-2.474;2023-02-01T00:04:08;23.30;;;5.45;;
60492;SDS011;46341;51.290;-2.474;2023-02-01T00:06:34;24.02;;;4.45;;
60492;SDS011;46341;51.290;-2.474;2023-02-01T00:09:00;26.08;;;5.15;;
60492;SDS011;46341;51.290;-2.474;2023-02-01T00:11:27;25.23;;;5.00;;
60492;SDS011;46341;51.290;-2.474;2023-02-01T00:13:54;21.92;;;4.25;;
60492;SDS011;46341;51.290;-2.474;2023-02-01T00:16:21;22.40;;;4.70;;
60492;SDS011;46341;51.290;-2.474;2023-02-01T00:18:49;30.15;;;6.00;;
60492;SDS011;46341;51.290;-2.474;2023-02-01T00:21:17;24.77;;;4.70;;
60492;SDS011;46341;51.290;-2.474;2023-02-01T00:23:43;20.15;;;5.05;;
60492;SDS011;46341;51.290;-2.474;2023-02-01T00:26:20;27.65;;;5.60;;
60492;SDS011;46341;51.290;-2.474;2023-02-01T00:28:48;19.63;;;4.63;;
60492;SDS011;46341;51.290;-2.474;2023-02-01T00:31:15;22.98;;;5.95;;
60492;SDS011;46341;51.290;-2.474;2023-02-01T00:33:41;23.17;;;4.35;;
60492;SDS011;46341;51.290;-2.474;2023-02-01T00:36:08;19.67;;;4.32;;
60492;SDS011;46341;51.290;-2.474;2023-02-01T00:38:36;22.30;;;4.82;;
60492;SDS011;46341;51.290;-2.474;2023-02-01T00:41:03;16.90;;;5.03;;
60492;SDS011;46341;51.290;-2.474;2023-02-01T00:43:30;23.25;;;5.07;;
60492;SDS011;46341;51.290;-2.474;2023-02-01T00:45:57;18.17;;;4.87;;
60492;SDS011;46341;51.290;-2.474;2023-02-01T00:48:23;24.10;;;4.97;;
60492;SDS011;46341;51.290;-2.474;2023-02-01T00:50:50;21.67;;;4.78;;
60492;SDS011;46341;51.290;-2.474;2023-02-01T00:53:17;19.65;;;4.60;;
60492;SDS011;46341;51.290;-2.474;2023-02-01T00:55:46;22.50;;;5.30;;
60492;SDS011;46341;51.290;-2.474;2023-02-01T00:58:13;16.42;;;4.13;;
60492;SDS011;46341;51.290;-2.474;2023-02-01T01:00:40;26.17;;;5.45;;
60492;SDS011;46341;51.290;-2.474;2023-02-01T01:03:06;27.27;;;5.15;;
60492;SDS011;46341;51.290;-2.474;2023-02-01T01:05:47;24.20;;;5.88;;
60492;SDS011;46341;51.290;-2.474;2023-02-01T01:08:15;26.00;;;6.63;;
60492;SDS011;46341;51.290;-2.474;2023-02-01T01:10:41;27.13;;;6.20;;
60492;SDS011;46341;51.290;-2.474;2023-02-01T01:13:08;20.88;;;4.82;;
60492;SDS011;46341;51.290;-2.474;2023-02-01T01:15:35;22.80;;;4.57;;
60492;SDS011;46341;51.290;-2.474;2023-02-01T01:18:02;22.67;;;5.28;;
60492;SDS011;46341;51.290;-2.474;2023-02-01T01:20:29;26.13;;;5.28;;
60492;SDS011;46341;51.290;-2.474;2023-02-01T01:22:55;23.15;;;6.05;;
60492;SDS011;46341;51.290;-2.474;2023-02-01T01:25:22;21.60;;;4.32;;
60492;SDS011;46341;51.290;-2.474;2023-02-01T01:27:48;24.08;;;4.55;;
60492;SDS011;46341;51.290;-2.474;2023-02-01T01:30:15;22.80;;;4.55;;
60492;SDS011;46341;51.290;-2.474;2023-02-01T01:32:41;21.02;;;5.28;;
60492;SDS011;46341;51.290;-2.474;2023-02-01T01:35:08;20.70;;;4.85;;
60492;SDS011;46341;51.290;-2.474;2023-02-01T01:37:34;19.42;;;4.47;;
60492;SDS011;46341;51.290;-2.474;2023-02-01T01:40:05;19.30;;;4.30;;
60492;SDS011;46341;51.290;-2.474;2023-02-01T01:42:39;21.33;;;4.20;;
60492;SDS011;46341;51.290;-2.474;2023-02-01T01:47:42;23.17;;;4.20;;
60492;SDS011;46341;51.290;-2.474;2023-02-01T01:50:11;18.75;;;4.30;;
60492;SDS011;46341;51.290;-2.474;2023-02-01T01:52:39;15.98;;;3.55;;
60492;SDS011;46341;51.290;-2.474;2023-02-01T01:55:07;18.67;;;3.83;;
60492;SDS011;46341;51.290;-2.474;2023-02-01T01:57:41;17.20;;;4.15;;
60492;SDS011;46341;51.290;-2.474;2023-02-01T02:00:09;19.30;;;4.18;;
60492;SDS011;46341;51.290;-2.474;2023-02-01T02:02:36;23.42;;;3.88;;
60492;SDS011;46341;51.290;-2.474;2023-02-01T02:05:03;11.70;;;4.10;;
60492;SDS011;46341;51.290;-2.474;2023-02-01T02:07:30;20.90;;;4.13;;
60492;SDS011;46341;51.290;-2.474;2023-02-01T02:09:58;16.83;;;3.40;;
60492;SDS011;46341;51.290;-2.474;2023-02-01T02:14:53;17.05;;;3.67;;
60492;SDS011;46341;51.290;-2.474;2023-02-01T02:17:28;23.40;;;4.55;;
60492;SDS011;46341;51.290;-2.474;2023-02-01T02:35:26;22.85;;;4.45;;
60492;SDS011;46341;51.290;-2.474;2023-02-01T02:38:01;29.48;;;6.07;;
60492;SDS011;46341;51.290;-2.474;2023-02-01T02:40:32;15.18;;;4.13;;
60492;SDS011;46341;51.290;-2.474;2023-02-01T02:43:10;22.48;;;4.35;;
60492;SDS011;46341;51.290;-2.474;2023-02-01T02:48:52;29.48;;;4.93;;
60492;SDS011;46341;51.290;-2.474;2023-02-01T02:51:34;28.67;;;4.95;;
60492;SDS011;46341;51.290;-2.474;2023-02-01T02:54:21;24.60;;;5.05;;
60492;SDS011;46341;51.290;-2.474;2023-02-01T02:57:08;19.70;;;4.43;;
60492;SDS011;46341;51.290;-2.474;2023-02-01T02:59:54;28.77;;;5.07;;
60492;SDS011;46341;51.290;-2.474;2023-02-01T03:02:40;23.98;;;4.97;;
60492;SDS011;46341;51.290;-2.474;2023-02-01T03:05:25;28.35;;;5.55;;
60492;SDS011;46341;51.290;-2.474;2023-02-01T03:08:08;19.77;;;4.60;;
60492;SDS011;46341;51.290;-2.474;2023-02-01T03:13:04;21.73;;;4.10;;
60492;SDS011;46341;51.290;-2.474;2023-02-01T03:15:34;23.92;;;5.07;;
60492;SDS011;46341;51.290;-2.474;2023-02-01T03:18:02;22.95;;;4.78;;
60492;SDS011;46341;51.290;-2.474;2023-02-01T03:20:30;21.80;;;4.43;;
60492;SDS011;46341;51.290;-2.474;2023-02-01T03:22:58;24.40;;;4.88;;
60492;SDS011;46341;51.290;-2.474;2023-02-01T03:25:26;30.13;;;6.10;;
60492;SDS011;46341;51.290;-2.474;2023-02-01T03:28:04;21.67;;;4.63;;
60492;SDS011;46341;51.290;-2.474;2023-02-01T03:30:41;23.85;;;5.35;;
60492;SDS011;46341;51.290;-2.474;2023-02-01T03:33:10;22.30;;;5.00;;
60492;SDS011;46341;51.290;-2.474;2023-02-01T03:38:21;25.77;;;5.25;;
60492;SDS011;46341;51.290;-2.474;2023-02-01T03:40:51;21.55;;;4.70;;
60492;SDS011;46341;51.290;-2.474;2023-02-01T03:43:19;22.52;;;4.78;;
60492;SDS011;46341;51.290;-2.474;2023-02-01T03:45:48;19.77;;;4.13;;
60492;SDS011;46341;51.290;-2.474;2023-02-01T03:48:15;21.15;;;4.35;;
60492;SDS011;46341;51.290;-2.474;2023-02-01T03:50:47;18.80;;;4.30;;
60492;SDS011;46341;51.290;-2.474;2023-02-01T03:53:16;18.50;;;3.90;;
60492;SDS011;46341;51.290;-2.474;2023-02-01T03:55:43;22.45;;;3.83;;
60492;SDS011;46341;51.290;-2.474;2023-02-01T03:58:14;22.58;;;4.38;;
60492;SDS011;46341;51.290;-2.474;2023-02-01T04:00:43;24.42;;;4.40;;
60492;SDS011;46341;51.290;-2.474;2023-02-01T04:03:10;22.33;;;4.05;;
60492;SDS011;46341;51.290;-2.474;2023-02-01T04:05:37;21.15;;;4.80;;
60492;SDS011;46341;51.290;-2.474;2023-02-01T04:08:03;20.23;;;3.97;;
60492;SDS011;46341;51.290;-2.474;2023-02-01T04:10:31;25.17;;;4.65;;
60492;SDS011;46341;51.290;-2.474;2023-02-01T04:12:58;20.33;;;4.07;;
60492;SDS011;46341;51.290;-2.474;2023-02-01T04:15:24;26.05;;;4.85;;
60492;SDS011;46341;51.290;-2.474;2023-02-01T04:17:51;21.13;;;4.43;;
60492;SDS011;46341;51.290;-2.474;2023-02-01T04:20:17;19.92;;;4.05;;
60492;SDS011;46341;51.290;-2.474;2023-02-01T04:22:43;22.27;;;4.00;;
60492;SDS011;46341;51.290;-2.474;2023-02-01T04:25:10;28.35;;;4.60;;
60492;SDS011;46341;51.290;-2.474;2023-02-01T04:27:36;26.58;;;4.43;;
60492;SDS011;46341;51.290;-2.474;2023-02-01T04:30:03;20.38;;;3.90;;
60492;SDS011;46341;51.290;-2.474;2023-02-01T04:32:30;25.30;;;4.78;;
60492;SDS011;46341;51.290;-2.474;2023-02-01T04:34:56;25.48;;;4.53;;
60492;SDS011;46341;51.290;-2.474;2023-02-01T04:37:23;25.02;;;4.63;;
60492;SDS011;46341;51.290;-2.474;2023-02-01T04:39:49;20.38;;;4.13;;
60492;SDS011;46341;51.290;-2.474;2023-02-01T04:42:15;14.85;;;3.75;;
60492;SDS011;46341;51.290;-2.474;2023-02-01T04:44:42;17.77;;;4.65;;
60492;SDS011;46341;51.290;-2.474;2023-02-01T04:47:09;21.30;;;4.07;;
60492;SDS011;46341;51.290;-2.474;2023-02-01T04:49:35;20.70;;;4.30;;
60492;SDS011;46341;51.290;-2.474;2023-02-01T04:52:02;24.20;;;4.15;;
60492;SDS011;46341;51.290;-2.474;2023-02-01T04:54:28;27.80;;;3.95;;
60492;SDS011;46341;51.290;-2.474;2023-02-01T04:56:55;23.02;;;3.88;;
60492;SDS011;46341;51.290;-2.474;2023-02-01T04:59:21;16.90;;;3.28;;
60492;SDS011;46341;51.290;-2.474;2023-02-01T05:01:47;19.23;;;4.03;;
60492;SDS011;46341;51.290;-2.474;2023-02-01T05:04:14;24.30;;;4.25;;
60492;SDS011;46341;51.290;-2.474;2023-02-01T05:06:40;23.17;;;4.07;;
60492;SDS011;46341;51.290;-2.474;2023-02-01T05:09:07;21.73;;;3.92;;
60492;SDS011;46341;51.290;-2.474;2023-02-01T05:11:33;22.65;;;3.72;;
60492;SDS011;46341;51.290;-2.474;2023-02-01T05:14:18;19.40;;;3.58;;
60492;SDS011;46341;51.290;-2.474;2023-02-01T05:16:45;22.05;;;4.00;;
60492;SDS011;46341;51.290;-2.474;2023-02-01T05:19:11;19.48;;;4.45;;
60492;SDS011;46341;51.290;-2.474;2023-02-01T05:21:37;21.08;;;4.28;;
60492;SDS011;46341;51.290;-2.474;2023-02-01T05:24:04;17.20;;;3.92;;
60492;SDS011;46341;51.290;-2.474;2023-02-01T05:26:36;23.52;;;4.43;;
60492;SDS011;46341;51.290;-2.474;2023-02-01T05:29:04;20.95;;;3.67;;
60492;SDS011;46341;51.290;-2.474;2023-02-01T05:31:30;18.65;;;3.65;;
60492;SDS011;46341;51.290;-2.474;2023-02-01T05:33:57;23.92;;;4.30;;
60492;SDS011;46341;51.290;-2.474;2023-02-01T05:36:23;26.10;;;4.75;;
60492;SDS011;46341;51.290;-2.474;2023-02-01T05:38:50;15.63;;;3.47;;
60492;SDS011;46341;51.290;-2.474;2023-02-01T05:41:16;23.48;;;5.18;;
60492;SDS011;46341;51.290;-2.474;2023-02-01T05:43:43;18.77;;;4.28;;
60492;SDS011;46341;51.290;-2.474;2023-02-01T05:46:09;22.83;;;3.92;;
60492;SDS011;46341;51.290;-2.474;2023-02-01T05:48:39;18.83;;;3.70;;
60492;SDS011;46341;51.290;-2.474;2023-02-01T05:51:06;20.75;;;4.28;;
60492;SDS011;46341;51.290;-2.474;2023-02-01T05:53:32;22.35;;;4.07;;
60492;SDS011;46341;51.290;-2.474;2023-02-01T05:55:59;18.42;;;3.70;;
60492;SDS011;46341;51.290;-2.474;2023-02-01T05:58:25;19.02;;;4.22;;
60492;SDS011;46341;51.290;-2.474;2023-02-01T06:00:51;15.85;;;3.88;;
60492;SDS011;46341;51.290;-2.474;2023-02-01T06:03:18;20.08;;;3.53;;
60492;SDS011;46341;51.290;-2.474;2023-02-01T06:05:44;15.95;;;3.10;;
60492;SDS011;46341;51.290;-2.474;2023-02-01T06:08:11;18.83;;;4.55;;
60492;SDS011;46341;51.290;-2.474;2023-02-01T06:10:37;19.80;;;4.13;;
60492;SDS011;46341;51.290;-2.474;2023-02-01T06:13:04;20.77;;;3.90;;
60492;SDS011;46341;51.290;-2.474;2023-02-01T06:15:30;19.55;;;3.72;;
60492;SDS011;46341;51.290;-2.474;2023-02-01T06:17:57;16.88;;;3.67;;
60492;SDS011;46341;51.290;-2.474;2023-02-01T06:20:24;17.67;;;3.63;;
60492;SDS011;46341;51.290;-2.474;2023-02-01T06:22:50;20.65;;;3.67;;
60492;SDS011;46341;51.290;-2.474;2023-02-01T06:27:45;21.38;;;3.83;;
60492;SDS011;46341;51.290;-2.474;2023-02-01T06:30:11;19.98;;;3.60;;
60492;SDS011;46341;51.290;-2.474;2023-02-01T06:32:41;18.23;;;3.78;;
60492;SDS011;46341;51.290;-2.474;2023-02-01T06:35:08;20.70;;;3.67;;
60492;SDS011;46341;51.290;-2.474;2023-02-01T06:37:37;25.90;;;4.68;;
60492;SDS011;46341;51.290;-2.474;2023-02-01T06:40:04;18.38;;;3.72;;
60492;SDS011;46341;51.290;-2.474;2023-02-01T06:42:30;24.75;;;4.28;;
60492;SDS011;46341;51.290;-2.474;2023-02-01T06:44:56;22.02;;;4.57;;
60492;SDS011;46341;51.290;-2.474;2023-02-01T06:47:23;21.17;;;4.93;;
60492;SDS011;46341;51.290;-2.474;2023-02-01T06:49:49;22.45;;;4.68;;
60492;SDS011;46341;51.290;-2.474;2023-02-01T06:52:15;19.17;;;4.10;;
60492;SDS011;46341;51.290;-2.474;2023-02-01T06:54:42;23.20;;;4.25;;
60492;SDS011;46341;51.290;-2.474;2023-02-01T06:57:08;24.60;;;4.32;;
60492;SDS011;46341;51.290;-2.474;2023-02-01T06:59:35;20.00;;;4.40;;
60492;SDS011;46341;51.290;-2.474;2023-02-01T07:02:01;16.67;;;3.67;;
60492;SDS011;46341;51.290;-2.474;2023-02-01T07:04:28;17.92;;;4.03;;
60492;SDS011;46341;51.290;-2.474;2023-02-01T07:06:54;19.15;;;4.07;;
60492;SDS011;46341;51.290;-2.474;2023-02-01T07:09:20;21.17;;;4.13;;
60492;SDS011;46341;51.290;-2.474;2023-02-01T07:11:47;19.75;;;4.03;;
60492;SDS011;46341;51.290;-2.474;2023-02-01T07:14:13;23.20;;;4.75;;
60492;SDS011;46341;51.290;-2.474;2023-02-01T07:16:39;24.67;;;4.97;;
60492;SDS011;46341;51.290;-2.474;2023-02-01T07:19:06;23.60;;;4.10;;
60492;SDS011;46341;51.290;-2.474;2023-02-01T07:21:32;19.75;;;4.25;;
60492;SDS011;46341;51.290;-2.474;2023-02-01T07:23:59;22.75;;;4.32;;
60492;SDS011;46341;51.290;-2.474;2023-02-01T07:26:25;22.63;;;4.45;;
60492;SDS011;46341;51.290;-2.474;2023-02-01T07:28:52;20.05;;;4.32;;
60492;SDS011;46341;51.290;-2.474;2023-02-01T07:31:19;28.45;;;5.57;;
60492;SDS011;46341;51.290;-2.474;2023-02-01T07:33:47;22.30;;;5.10;;
60492;SDS011;46341;51.290;-2.474;2023-02-01T07:36:15;22.08;;;4.57;;
60492;SDS011;46341;51.290;-2.474;2023-02-01T07:38:41;19.10;;;4.13;;
60492;SDS011;46341;51.290;-2.474;2023-02-01T07:41:08;18.00;;;4.15;;
60492;SDS011;46341;51.290;-2.474;2023-02-01T07:43:35;20.40;;;4.35;;
60492;SDS011;46341;51.290;-2.474;2023-02-01T07:46:01;24.05;;;4.82;;
60492;SDS011;46341;51.290;-2.474;2023-02-01T07:48:28;18.35;;;5.43;;
60492;SDS011;46341;51.290;-2.474;2023-02-01T07:51:01;19.80;;;4.55;;
60492;SDS011;46341;51.290;-2.474;2023-02-01T07:53:29;21.77;;;4.20;;
60492;SDS011;46341;51.290;-2.474;2023-02-01T07:55:55;19.73;;;3.58;;
60492;SDS011;46341;51.290;-2.474;2023-02-01T07:58:22;19.45;;;4.40;;
60492;SDS011;46341;51.290;-2.474;2023-02-01T08:00:49;25.30;;;6.07;;
60492;SDS011;46341;51.290;-2.474;2023-02-01T08:03:34;24.02;;;6.40;;
60492;SDS011;46341;51.290;-2.474;2023-02-01T08:06:00;26.02;;;6.13;;
60492;SDS011;46341;51.290;-2.474;2023-02-01T08:08:27;25.30;;;5.60;;
60492;SDS011;46341;51.290;-2.474;2023-02-01T08:10:57;26.75;;;6.65;;
60492;SDS011;46341;51.290;-2.474;2023-02-01T08:13:24;21.45;;;4.68;;
60492;SDS011;46341;51.290;-2.474;2023-02-01T08:15:50;18.85;;;4.53;;
60492;SDS011;46341;51.290;-2.474;2023-02-01T08:18:16;21.10;;;4.97;;
60492;SDS011;46341;51.290;-2.474;2023-02-01T08:20:44;25.30;;;4.93;;
60492;SDS011;46341;51.290;-2.474;2023-02-01T08:23:11;31.15;;;5.22;;
60492;SDS011;46341;51.290;-2.474;2023-02-01T08:25:38;21.00;;;5.07;;
60492;SDS011;46341;51.290;-2.474;2023-02-01T08:28:05;22.92;;;5.00;;
60492;SDS011;46341;51.290;-2.474;2023-02-01T08:30:32;22.27;;;4.72;;
60492;SDS011;46341;51.290;-2.474;2023-02-01T08:32:59;28.63;;;4.75;;
60492;SDS011;46341;51.290;-2.474;2023-02-01T08:38:08;27.40;;;4.85;;
60492;SDS011;46341;51.290;-2.474;2023-02-01T08:40:34;27.88;;;4.57;;
60492;SDS011;46341;51.290;-2.474;2023-02-01T08:43:00;26.73;;;5.03;;
60492;SDS011;46341;51.290;-2.474;2023-02-01T08:45:28;25.00;;;4.47;;
60492;SDS011;46341;51.290;-2.474;2023-02-01T08:47:55;22.13;;;4.65;;
60492;SDS011;46341;51.290;-2.474;2023-02-01T08:50:22;28.40;;;4.82;;
60492;SDS011;46341;51.290;-2.474;2023-02-01T08:52:49;24.02;;;5.10;;
60492;SDS011;46341;51.290;-2.474;2023-02-01T08:55:16;22.13;;;4.28;;
60492;SDS011;46341;51.290;-2.474;2023-02-01T08:57:43;21.52;;;4.90;;
60492;SDS011;46341;51.290;-2.474;2023-02-01T09:00:17;22.80;;;4.82;;
60492;SDS011;46341;51.290;-2.474;2023-02-01T09:02:44;23.08;;;5.03;;
60492;SDS011;46341;51.290;-2.474;2023-02-01T09:05:11;19.20;;;4.63;;
60492;SDS011;46341;51.290;-2.474;2023-02-01T09:07:37;24.20;;;4.50;;
60492;SDS011;46341;51.290;-2.474;2023-02-01T09:10:04;20.77;;;4.03;;
60492;SDS011;46341;51.290;-2.474;2023-02-01T09:12:31;22.42;;;4.88;;
60492;SDS011;46341;51.290;-2.474;2023-02-01T09:14:58;23.48;;;4.97;;
60492;SDS011;46341;51.290;-2.474;2023-02-01T09:19:56;21.83;;;4.32;;
60492;SDS011;46341;51.290;-2.474;2023-02-01T09:22:23;21.38;;;5.18;;
60492;SDS011;46341;51.290;-2.474;2023-02-01T09:24:49;17.02;;;4.10;;
60492;SDS011;46341;51.290;-2.474;2023-02-01T09:27:16;20.38;;;3.78;;
60492;SDS011;46341;51.290;-2.474;2023-02-01T09:29:43;17.63;;;3.75;;
60492;SDS011;46341;51.290;-2.474;2023-02-01T09:32:09;18.00;;;3.80;;
60492;SDS011;46341;51.290;-2.474;2023-02-01T09:34:36;18.98;;;4.85;;
60492;SDS011;46341;51.290;-2.474;2023-02-01T09:37:02;15.75;;;3.60;;
60492;SDS011;46341;51.290;-2.474;2023-02-01T09:39:29;19.50;;;3.95;;
60492;SDS011;46341;51.290;-2.474;2023-02-01T09:47:18;18.85;;;4.30;;
60492;SDS011;46341;51.290;-2.474;2023-02-01T09:49:48;22.13;;;5.13;;
60492;SDS011;46341;51.290;-2.474;2023-02-01T09:52:19;18.23;;;3.90;;
60492;SDS011;46341;51.290;-2.474;2023-02-01T09:54:51;15.07;;;3.90;;
60492;SDS011;46341;51.290;-2.474;2023-02-01T09:57:22;15.48;;;3.70;;
60492;SDS011;46341;51.290;-2.474;2023-02-01T09:59:51;21.25;;;4.00;;
60492;SDS011;46341;51.290;-2.474;2023-02-01T10:02:21;16.73;;;3.95;;
60492;SDS011;46341;51.290;-2.474;2023-02-01T10:04:49;14.77;;;3.63;;
60492;SDS011;46341;51.290;-2.474;2023-02-01T10:22:46;16.23;;;3.35;;
60492;SDS011;46341;51.290;-2.474;2023-02-01T10:28:00;17.13;;;5.33;;
60492;SDS011;46341;51.290;-2.474;2023-02-01T10:30:29;12.57;;;3.53;;
60492;SDS011;46341;51.290;-2.474;2023-02-01T10:35:43;13.77;;;3.88;;
60492;SDS011;46341;51.290;-2.474;2023-02-01T10:38:29;16.45;;;3.70;;
60492;SDS011;46341;51.290;-2.474;2023-02-01T10:40:58;11.73;;;2.90;;
60492;SDS011;46341;51.290;-2.474;2023-02-01T10:43:27;14.48;;;3.70;;
60492;SDS011;46341;51.290;-2.474;2023-02-01T10:45:53;13.32;;;3.60;;
60492;SDS011;46341;51.290;-2.474;2023-02-01T10:48:20;11.43;;;3.33;;
60492;SDS011;46341;51.290;-2.474;2023-02-01T10:50:51;13.63;;;3.43;;
60492;SDS011;46341;51.290;-2.474;2023-02-01T10:53:27;16.50;;;3.45;;
60492;SDS011;46341;51.290;-2.474;2023-02-01T10:55:55;10.48;;;3.50;;
60492;SDS011;46341;51.290;-2.474;2023-02-01T10:58:26;11.35;;;3.47;;
60492;SDS011;46341;51.290;-2.474;2023-02-01T11:00:57;13.90;;;3.28;;
60492;SDS011;46341;51.290;-2.474;2023-02-01T11:05:53;15.05;;;4.00;;
60492;SDS011;46341;51.290;-2.474;2023-02-01T11:08:21;11.88;;;2.78;;
60492;SDS011;46341;51.290;-2.474;2023-02-01T11:10:49;13.50;;;3.47;;
60492;SDS011;46341;51.290;-2.474;2023-02-01T11:13:22;16.10;;;3.85;;
60492;SDS011;46341;51.290;-2.474;2023-02-01T11:15:54;12.73;;;3.03;;
60492;SDS011;46341;51.290;-2.474;2023-02-01T11:18:27;12.88;;;3.42;;
60492;SDS011;46341;51.290;-2.474;2023-02-01T11:20:53;10.27;;;3.08;;
60492;SDS011;46341;51.290;-2.474;2023-02-01T11:23:21;14.25;;;4.00;;
60492;SDS011;46341;51.290;-2.474;2023-02-01T11:25:50;13.23;;;3.75;;
60492;SDS011;46341;51.290;-2.474;2023-02-01T11:28:17;14.77;;;3.50;;
60492;SDS011;46341;51.290;-2.474;2023-02-01T11:30:45;11.32;;;3.30;;
60492;SDS011;46341;51.290;-2.474;2023-02-01T11:33:17;14.13;;;3.70;;
60492;SDS011;46341;51.290;-2.474;2023-02-01T11:35:44;14.90;;;2.97;;
60492;SDS011;46341;51.290;-2.474;2023-02-01T11:38:22;12.52;;;2.97;;
60492;SDS011;46341;51.290;-2.474;2023-02-01T11:40:52;10.80;;;2.47;;
60492;SDS011;46341;51.290;-2.474;2023-02-01T11:43:22;9.57;;;3.10;;
60492;SDS011;46341;51.290;-2.474;2023-02-01T11:45:54;12.43;;;3.05;;
60492;SDS011;46341;51.290;-2.474;2023-02-01T11:48:20;17.23;;;3.40;;
60492;SDS011;46341;51.290;-2.474;2023-02-01T11:51:08;12.18;;;3.10;;
60492;SDS011;46341;51.290;-2.474;2023-02-01T11:53:48;13.38;;;3.00;;
60492;SDS011;46341;51.290;-2.474;2023-02-01T11:56:25;15.43;;;3.00;;
60492;SDS011;46341;51.290;-2.474;2023-02-01T12:01:33;12.85;;;2.83;;
60492;SDS011;46341;51.290;-2.474;2023-02-01T12:11:45;17.38;;;3.97;;
60492;SDS011;46341;51.290;-2.474;2023-02-01T12:16:52;18.13;;;3.80;;
60492;SDS011;46341;51.290;-2.474;2023-02-01T12:22:04;14.23;;;3.45;;
60492;SDS011;46341;51.290;-2.474;2023-02-01T12:32:56;17.20;;;3.58;;
60492;SDS011;46341;51.290;-2.474;2023-02-01T12:37:59;15.95;;;3.70;;
60492;SDS011;46341;51.290;-2.474;2023-02-01T12:40:32;14.82;;;3.30;;
60492;SDS011;46341;51.290;-2.474;2023-02-01T12:45:32;22.27;;;4.03;;
60492;SDS011;46341;51.290;-2.474;2023-02-01T12:48:01;17.80;;;4.10;;
60492;SDS011;46341;51.290;-2.474;2023-02-01T12:50:32;15.95;;;4.53;;
60492;SDS011;46341;51.290;-2.474;2023-02-01T12:53:12;22.95;;;5.07;;
60492;SDS011;46341;51.290;-2.474;2023-02-01T12:55:49;23.77;;;4.32;;
60492;SDS011;46341;51.290;-2.474;2023-02-01T12:58:23;21.80;;;4.20;;
60492;SDS011;46341;51.290;-2.474;2023-02-01T13:00:52;18.60;;;4.15;;
60492;SDS011;46341;51.290;-2.474;2023-02-01T13:06:04;22.73;;;4.35;;
60492;SDS011;46341;51.290;-2.474;2023-02-01T13:08:43;22.45;;;5.00;;
60492;SDS011;46341;51.290;-2.474;2023-02-01T13:11:22;21.08;;;4.55;;
60492;SDS011;46341;51.290;-2.474;2023-02-01T13:16:34;19.20;;;3.95;;
60492;SDS011;46341;51.290;-2.474;2023-02-01T13:19:08;23.42;;;4.47;;
60492;SDS011;46341;51.290;-2.474;2023-02-01T13:21:36;21.13;;;3.45;;
60492;SDS011;46341;51.290;-2.474;2023-02-01T13:24:06;19.67;;;3.50;;
60492;SDS011;46341;51.290;-2.474;2023-02-01T13:26:34;17.63;;;3.78;;
60492;SDS011;46341;51.290;-2.474;2023-02-01T13:29:02;18.80;;;3.60;;
60492;SDS011;46341;51.290;-2.474;2023-02-01T13:41:41;22.35;;;3.95;;
60492;SDS011;46341;51.290;-2.474;2023-02-01T13:44:11;16.00;;;3.33;;
60492;SDS011;46341;51.290;-2.474;2023-02-01T13:46:41;22.23;;;4.18;;
60492;SDS011;46341;51.290;-2.474;2023-02-01T13:49:15;23.33;;;4.57;;
60492;SDS011;46341;51.290;-2.474;2023-02-01T13:51:44;23.40;;;4.50;;
60492;SDS011;46341;51.290;-2.474;2023-02-01T13:54:25;24.50;;;4.88;;
60492;SDS011;46341;51.290;-2.474;2023-02-01T13:56:51;18.67;;;3.85;;
60492;SDS011;46341;51.290;-2.474;2023-02-01T13:59:48;25.90;;;4.97;;
60492;SDS011;46341;51.290;-2.474;2023-02-01T14:05:00;21.67;;;4.35;;
60492;SDS011;46341;51.290;-2.474;2023-02-01T14:07:26;18.88;;;3.95;;
60492;SDS011;46341;51.290;-2.474;2023-02-01T14:09:53;19.27;;;4.35;;
60492;SDS011;46341;51.290;-2.474;2023-02-01T14:15:24;25.52;;;4.07;;
60492;SDS011;46341;51.290;-2.474;2023-02-01T14:17:51;22.70;;;4.15;;
60492;SDS011;46341;51.290;-2.474;2023-02-01T14:23:03;20.00;;;4.10;;
60492;SDS011;46341;51.290;-2.474;2023-02-01T14:25:33;22.20;;;3.67;;
60492;SDS011;46341;51.290;-2.474;2023-02-01T14:27:59;21.25;;;4.57;;
60492;SDS011;46341;51.290;-2.474;2023-02-01T14:30:27;18.70;;;3.75;;
60492;SDS011;46341;51.290;-2.474;2023-02-01T14:32:53;20.25;;;3.88;;
60492;SDS011;46341;51.290;-2.474;2023-02-01T14:35:26;20.75;;;3.58;;
60492;SDS011;46341;51.290;-2.474;2023-02-01T14:37:53;21.30;;;4.10;;
60492;SDS011;46341;51.290;-2.474;2023-02-01T14:40:25;17.10;;;3.13;;
60492;SDS011;46341;51.290;-2.474;2023-02-01T14:42:52;19.10;;;3.38;;
60492;SDS011;46341;51.290;-2.474;2023-02-01T14:55:40;21.90;;;3.90;;
60492;SDS011;46341;51.290;-2.474;2023-02-01T15:01:14;24.27;;;5.13;;
60492;SDS011;46341;51.290;-2.474;2023-02-01T15:06:20;18.85;;;4.90;;
60492;SDS011;46341;51.290;-2.474;2023-02-01T15:08:48;19.52;;;5.30;;
60492;SDS011;46341;51.290;-2.474;2023-02-01T15:11:15;28.48;;;5.15;;
60492;SDS011;46341;51.290;-2.474;2023-02-01T15:13:47;29.13;;;7.85;;
60492;SDS011;46341;51.290;-2.474;2023-02-01T15:16:15;20.80;;;5.93;;
60492;SDS011;46341;51.290;-2.474;2023-02-01T15:18:41;24.15;;;9.07;;
60492;SDS011;46341;51.290;-2.474;2023-02-01T15:21:15;37.25;;;13.90;;
60492;SDS011;46341;51.290;-2.474;2023-02-01T15:24:12;29.58;;;8.65;;
60492;SDS011;46341;51.290;-2.474;2023-02-01T15:26:39;24.42;;;9.20;;
60492;SDS011;46341;51.290;-2.474;2023-02-01T15:29:09;22.88;;;5.80;;
60492;SDS011;46341;51.290;-2.474;2023-02-01T15:31:37;23.38;;;6.68;;
60492;SDS011;46341;51.290;-2.474;2023-02-01T15:34:04;18.63;;;5.88;;
60492;SDS011;46341;51.290;-2.474;2023-02-01T15:36:30;22.77;;;5.82;;
60492;SDS011;46341;51.290;-2.474;2023-02-01T15:41:46;25.73;;;6.13;;
60492;SDS011;46341;51.290;-2.474;2023-02-01T15:44:20;27.30;;;5.57;;
60492;SDS011;46341;51.290;-2.474;2023-02-01T15:46:49;22.13;;;4.95;;
60492;SDS011;46341;51.290;-2.474;2023-02-01T15:49:18;21.00;;;5.30;;
60492;SDS011;46341;51.290;-2.474;2023-02-01T15:51:45;23.20;;;5.63;;
60492;SDS011;46341;51.290;-2.474;2023-02-01T15:54:15;18.15;;;4.10;;
60492;SDS011;46341;51.290;-2.474;2023-02-01T15:56:49;21.30;;;4.35;;
60492;SDS011;46341;51.290;-2.474;2023-02-01T15:59:19;23.90;;;3.92;;
60492;SDS011;46341;51.290;-2.474;2023-02-01T16:01:46;21.60;;;5.40;;
60492;SDS011;46341;51.290;-2.474;2023-02-01T16:06:45;19.83;;;4.93;;
60492;SDS011;46341;51.290;-2.474;2023-02-01T16:09:12;27.08;;;6.25;;
60492;SDS011;46341;51.290;-2.474;2023-02-01T16:12:22;21.63;;;7.13;;
60492;SDS011;46341;51.290;-2.474;2023-02-01T16:14:28;21.65;;;5.65;;
60492;SDS011;46341;51.290;-2.474;2023-02-01T16:16:56;24.27;;;7.50;;
60492;SDS011;46341;51.290;-2.474;2023-02-01T16:19:23;32.35;;;9.98;;
60492;SDS011;46341;51.290;-2.474;2023-02-01T16:21:54;22.95;;;6.63;;
60492;SDS011;46341;51.290;-2.474;2023-02-01T16:24:21;26.35;;;10.00;;
60492;SDS011;46341;51.290;-2.474;2023-02-01T16:26:49;23.08;;;6.13;;
60492;SDS011;46341;51.290;-2.474;2023-02-01T16:29:15;22.77;;;6.25;;
60492;SDS011;46341;51.290;-2.474;2023-02-01T16:31:42;24.43;;;5.60;;
60492;SDS011;46341;51.290;-2.474;2023-02-01T16:34:10;24.25;;;6.00;;
60492;SDS011;46341;51.290;-2.474;2023-02-01T16:36:39;22.23;;;5.25;;
60492;SDS011;46341;51.290;-2.474;2023-02-01T16:39:08;33.85;;;12.40;;
60492;SDS011;46341;51.290;-2.474;2023-02-01T16:41:35;25.48;;;9.20;;
60492;SDS011;46341;51.290;-2.474;2023-02-01T16:44:01;23.20;;;9.20;;
60492;SDS011;46341;51.290;-2.474;2023-02-01T16:46:28;26.70;;;8.05;;
60492;SDS011;46341;51.290;-2.474;2023-02-01T16:48:58;24.73;;;6.82;;
60492;SDS011;46341;51.290;-2.474;2023-02-01T16:51:26;26.48;;;6.32;;